Naknek, Alaska
Current Conditions -  °F | °C
As of 6:59 AM on Friday 24 Oct 2014 (Local Time) from PFWS Reporting Station
Haze Haze  
Wind Chill: 28°   Ceiling: 400
Heat Index: 34°   Visibility: 2mi
Dew Point: 32°   Wind: 7mph
Humidity: 93%   Direction: 310°NW
Pressure: 29.86"   Gusts: NA
Location:  58.73°N, 157.02°W
Report Text: PFWS 241459Z AUTO 31006KT 2SM BR OVC004 01/00 A2986 RMK AO2 CIG 002V007 FZRANO
Loading
Personal Weather Stations






























Interactive Weather Map
Tropical Storm Tracking
New forecast layout! Learn more

10-Day Weather Forecast

Advertisements
Track Severe Weather on mobile